Time;durP1;ratioP1;P1;durP2;ratioP2;P2;SDS_P1;SDS_P2;PMS_P1;PMS_P2;Temp;Humidity;BMP_temperature;BMP_pressure;BME280_temperature;BME280_humidity;BME280_pressure;Samples;Min_cycle;Max_cycle;Signal;HPM_P1;HPM_P2
2021/01/16 00:00:35;;;;;;;28.57;15.50;;;-4.20;99.90;;;;;;5131870;27;20937;-71
2021/01/16 00:03:02;;;;;;;34.50;15.90;;;-4.10;99.90;;;;;;5131358;27;20451;-72
2021/01/16 00:05:30;;;;;;;26.10;15.27;;;-4.10;99.90;;;;;;5131519;28;20423;-72
2021/01/16 00:08:02;;;;;;;33.10;17.77;;;-4.20;99.90;;;;;;5131458;28;20431;-72
2021/01/16 00:10:31;;;;;;;25.80;14.67;;;-4.20;99.90;;;;;;5131392;27;20450;-72
2021/01/16 00:12:58;;;;;;;28.37;15.40;;;-4.10;99.90;;;;;;5131175;27;20447;-71
2021/01/16 00:15:25;;;;;;;29.10;18.70;;;-4.10;99.90;;;;;;5131031;27;20455;-72
2021/01/16 00:17:58;;;;;;;30.40;16.90;;;-4.30;99.90;;;;;;5131275;27;20446;-71
2021/01/16 00:20:25;;;;;;;27.10;15.80;;;-4.20;99.90;;;;;;5132067;27;20860;-72
2021/01/16 00:22:52;;;;;;;32.13;17.13;;;-4.20;99.90;;;;;;5135116;27;20447;-72
2021/01/16 00:25:19;;;;;;;31.93;15.97;;;-4.20;99.90;;;;;;5134703;27;20481;-71
2021/01/16 00:27:46;;;;;;;35.57;17.10;;;-4.20;99.90;;;;;;5135336;27;20923;-71
2021/01/16 00:30:15;;;;;;;26.70;15.53;;;-4.10;99.90;;;;;;5134384;27;20427;-72
2021/01/16 00:32:42;;;;;;;28.60;15.47;;;-4.10;99.90;;;;;;5135006;27;20438;-72
2021/01/16 00:35:11;;;;;;;30.57;15.40;;;-4.00;99.90;;;;;;5134889;27;20467;-71
2021/01/16 00:37:38;;;;;;;25.17;14.10;;;-3.90;99.90;;;;;;5134919;27;20510;-71
2021/01/16 00:40:06;;;;;;;24.53;14.40;;;-3.80;99.90;;;;;;5134769;27;20423;-71
2021/01/16 00:42:33;;;;;;;25.63;13.23;;;-3.70;99.90;;;;;;5134689;27;20430;-71
2021/01/16 00:45:01;;;;;;;30.83;14.57;;;-3.60;99.90;;;;;;5134787;27;20488;-71
2021/01/16 00:47:27;;;;;;;28.37;13.23;;;-3.50;99.90;;;;;;5134941;27;20419;-71
2021/01/16 00:50:02;;;;;;;25.70;13.53;;;-3.40;99.90;;;;;;5134797;27;20454;-71
2021/01/16 00:52:29;;;;;;;26.40;13.37;;;-3.30;99.90;;;;;;5134523;27;20422;-71
2021/01/16 00:54:55;;;;;;;23.90;13.10;;;-3.20;99.90;;;;;;5134341;27;20531;-71
2021/01/16 00:57:22;;;;;;;19.97;12.20;;;-3.10;99.90;;;;;;5134461;27;20450;-71
2021/01/16 00:59:49;;;;;;;25.10;12.47;;;-3.20;99.90;;;;;;5134552;27;20426;-71
2021/01/16 01:02:16;;;;;;;21.47;12.13;;;-3.10;99.90;;;;;;5134332;27;20427;-71
2021/01/16 01:04:43;;;;;;;22.57;12.80;;;-3.10;99.90;;;;;;5134326;27;20465;-71
2021/01/16 01:07:10;;;;;;;26.13;13.80;;;-3.10;99.90;;;;;;5134353;27;21025;-71
2021/01/16 01:09:38;;;;;;;21.07;11.70;;;-3.10;99.90;;;;;;5134194;27;20935;-71
2021/01/16 01:12:06;;;;;;;20.70;11.90;;;-3.10;99.90;;;;;;5134029;27;20427;-71
2021/01/16 01:14:33;;;;;;;25.63;14.40;;;-3.00;99.90;;;;;;5134243;27;20470;-71
2021/01/16 01:16:59;;;;;;;25.37;14.37;;;-3.00;99.90;;;;;;5134202;27;20428;-71
2021/01/16 01:19:27;;;;;;;26.20;14.40;;;-3.00;99.90;;;;;;5134376;27;20423;-71
2021/01/16 01:21:54;;;;;;;30.40;17.13;;;-3.10;99.90;;;;;;5134012;27;20427;-71
2021/01/16 01:24:21;;;;;;;23.50;14.77;;;-3.20;99.90;;;;;;5133733;27;20462;-71
2021/01/16 01:26:47;;;;;;;29.03;15.87;;;-3.20;99.90;;;;;;5134031;27;20423;-71
2021/01/16 01:29:14;;;;;;;24.93;14.57;;;-3.30;99.90;;;;;;5134138;27;20446;-71
2021/01/16 01:31:41;;;;;;;29.93;16.60;;;-3.30;99.90;;;;;;5133630;27;20427;-71
2021/01/16 01:34:07;;;;;;;26.67;13.47;;;-3.40;99.90;;;;;;5133861;27;20467;-71
2021/01/16 01:36:38;;;;;;;26.63;15.47;;;-3.40;99.90;;;;;;5134044;27;20484;-71
2021/01/16 01:39:05;;;;;;;23.90;13.90;;;-3.40;99.90;;;;;;5132806;27;20439;-71
2021/01/16 01:41:37;;;;;;;22.93;14.10;;;-3.30;99.90;;;;;;5133679;27;20427;-71
2021/01/16 01:44:07;;;;;;;24.53;14.37;;;-3.30;99.90;;;;;;5133700;27;20501;-71
2021/01/16 01:46:35;;;;;;;26.93;16.20;;;-3.30;99.90;;;;;;5133712;27;20426;-71
2021/01/16 01:49:03;;;;;;;25.33;14.50;;;-3.30;99.90;;;;;;5133535;27;20950;-71
2021/01/16 01:51:32;;;;;;;26.67;14.37;;;-3.40;99.90;;;;;;5133363;27;20423;-72
2021/01/16 01:54:00;;;;;;;26.63;15.80;;;-3.40;99.90;;;;;;5133083;27;20765;-72
2021/01/16 01:56:28;;;;;;;26.17;15.70;;;-3.40;99.90;;;;;;5133524;27;20911;-72
2021/01/16 01:58:56;;;;;;;31.53;15.57;;;-3.40;99.90;;;;;;5133348;27;20423;-72
2021/01/16 02:01:27;;;;;;;27.30;17.37;;;-3.40;99.90;;;;;;5133443;27;20435;-72
2021/01/16 02:03:55;;;;;;;25.40;16.60;;;-3.30;99.90;;;;;;5133273;27;20450;-72
2021/01/16 02:06:22;;;;;;;30.37;16.20;;;-3.30;99.90;;;;;;5133308;27;20430;-72
2021/01/16 02:08:48;;;;;;;36.40;16.40;;;-3.30;99.90;;;;;;5132766;27;20431;-72
2021/01/16 02:11:16;;;;;;;27.87;15.60;;;-3.30;99.90;;;;;;5133010;27;20633;-72
2021/01/16 02:13:43;;;;;;;26.93;15.80;;;-3.40;99.90;;;;;;5132955;27;20477;-72
2021/01/16 02:16:18;;;;;;;22.20;13.83;;;-3.40;99.90;;;;;;5133071;27;20484;-72
2021/01/16 02:18:46;;;;;;;24.33;15.77;;;-3.30;99.90;;;;;;5133063;27;20422;-72
2021/01/16 02:21:18;;;;;;;27.87;15.97;;;-3.40;99.90;;;;;;5132848;27;20419;-72
2021/01/16 02:23:49;;;;;;;24.90;12.73;;;-3.40;99.90;;;;;;5132338;27;20443;-72
2021/01/16 02:26:50;;;;;;;29.30;16.07;;;-3.40;99.90;;;;;;5132829;27;20442;-72
2021/01/16 02:29:18;;;;;;;23.70;14.70;;;-3.40;99.90;;;;;;5132720;27;20882;-72
2021/01/16 02:31:53;;;;;;;26.40;15.60;;;-3.40;99.90;;;;;;5132785;27;20411;-72
2021/01/16 02:34:25;;;;;;;30.20;15.23;;;-3.40;99.90;;;;;;5132038;27;20479;-72
2021/01/16 02:37:23;;;;;;;25.07;15.10;;;-3.40;99.90;;;;;;5132777;27;20927;-72
2021/01/16 02:40:03;;;;;;;36.57;18.70;;;-3.40;99.90;;;;;;5132191;27;20920;-71
2021/01/16 02:42:40;;;;;;;30.73;18.33;;;-3.30;99.90;;;;;;5132442;27;20423;-71
2021/01/16 02:45:11;;;;;;;30.47;16.83;;;-3.40;99.90;;;;;;5131864;27;20446;-71
2021/01/16 02:47:56;;;;;;;27.97;16.63;;;-3.30;99.90;;;;;;5132421;27;20419;-71
2021/01/16 02:50:24;;;;;;;27.57;16.50;;;-3.40;99.90;;;;;;5132362;27;20423;-71
2021/01/16 02:52:51;;;;;;;24.80;14.97;;;-3.40;99.90;;;;;;5132224;27;20966;-71
2021/01/16 02:55:18;;;;;;;28.73;15.73;;;-3.40;99.90;;;;;;5131892;27;20980;-71
2021/01/16 02:57:45;;;;;;;28.47;16.20;;;-3.30;99.90;;;;;;5132355;27;20472;-71
2021/01/16 03:00:16;;;;;;;34.40;16.93;;;-3.40;99.90;;;;;;5132048;27;20781;-71
2021/01/16 03:02:43;;;;;;;30.10;17.90;;;-3.40;99.90;;;;;;5132014;27;20443;-71
2021/01/16 03:05:10;;;;;;;27.57;15.37;;;-3.40;99.90;;;;;;5132185;27;20919;-71
2021/01/16 03:07:37;;;;;;;27.27;15.47;;;-3.40;99.90;;;;;;5132099;27;20761;-71
2021/01/16 03:10:08;;;;;;;28.13;16.10;;;-3.40;99.90;;;;;;5131855;27;20430;-71
2021/01/16 03:12:35;;;;;;;30.43;15.90;;;-3.40;99.90;;;;;;5131710;27;20916;-71
2021/01/16 03:15:05;;;;;;;30.60;16.17;;;-3.30;99.90;;;;;;5132005;27;21074;-71
2021/01/16 03:17:44;;;;;;;30.30;17.13;;;-3.30;99.90;;;;;;5132094;27;20423;-71
2021/01/16 03:20:12;;;;;;;29.87;18.40;;;-3.40;99.90;;;;;;5132070;27;20796;-72
2021/01/16 03:22:39;;;;;;;31.60;15.33;;;-3.40;99.90;;;;;;5131600;27;20423;-71
2021/01/16 03:25:06;;;;;;;30.00;16.60;;;-3.30;99.90;;;;;;5131634;27;20431;-71
2021/01/16 03:27:33;;;;;;;30.20;16.93;;;-3.30;99.90;;;;;;5131835;27;20439;-72
2021/01/16 03:30:00;;;;;;;33.37;16.03;;;-3.20;99.90;;;;;;5131851;27;20801;-71
2021/01/16 03:32:26;;;;;;;32.77;16.40;;;-3.20;99.90;;;;;;5131584;27;20483;-71
2021/01/16 03:34:54;;;;;;;30.17;16.00;;;-3.20;99.90;;;;;;5131686;27;20812;-71
2021/01/16 03:37:21;;;;;;;30.37;17.07;;;-3.30;99.90;;;;;;5131683;27;20430;-72
2021/01/16 03:39:47;;;;;;;29.87;16.37;;;-3.30;99.90;;;;;;5131049;27;20435;-71
2021/01/16 03:42:14;;;;;;;29.47;16.80;;;-3.40;99.90;;;;;;5131686;28;20466;-71
2021/01/16 03:44:41;;;;;;;27.63;14.50;;;-3.40;99.90;;;;;;5131658;27;20515;-71
2021/01/16 03:47:07;;;;;;;31.93;16.77;;;-3.40;99.90;;;;;;5131649;28;20434;-71
2021/01/16 03:49:34;;;;;;;28.57;16.20;;;-3.30;99.90;;;;;;5131712;28;20484;-71
2021/01/16 03:52:03;;;;;;;24.27;14.33;;;-3.40;99.90;;;;;;5131402;28;20423;-71
2021/01/16 03:54:30;;;;;;;26.07;14.90;;;-3.30;99.90;;;;;;5131163;27;20470;-71
2021/01/16 03:56:56;;;;;;;27.20;16.17;;;-3.30;99.90;;;;;;5134995;27;20427;-71
2021/01/16 03:59:23;;;;;;;24.73;13.83;;;-3.30;99.90;;;;;;5135737;27;20419;-71
2021/01/16 04:01:50;;;;;;;23.70;15.93;;;-3.40;99.90;;;;;;5135639;27;20792;-71
2021/01/16 04:04:16;;;;;;;34.60;15.90;;;-3.30;99.90;;;;;;5135527;27;20450;-71
2021/01/16 04:06:43;;;;;;;28.00;15.20;;;-3.40;99.90;;;;;;5135681;27;20423;-71
2021/01/16 04:09:11;;;;;;;32.13;15.40;;;-3.50;99.90;;;;;;5135068;27;20430;-72
2021/01/16 04:11:38;;;;;;;30.50;14.20;;;-3.40;99.90;;;;;;5135325;27;20430;-72
2021/01/16 04:14:05;;;;;;;24.67;13.63;;;-3.40;99.90;;;;;;5135430;27;20445;-71
2021/01/16 04:16:31;;;;;;;22.70;14.57;;;-3.40;99.90;;;;;;5135654;27;20442;-71
2021/01/16 04:18:58;;;;;;;30.43;16.00;;;-3.40;99.90;;;;;;5135143;27;20907;-71
2021/01/16 04:21:25;;;;;;;24.73;15.37;;;-3.40;99.90;;;;;;5135219;27;20914;-71
2021/01/16 04:23:52;;;;;;;28.30;16.13;;;-3.40;99.90;;;;;;5134851;27;20451;-72
2021/01/16 04:26:19;;;;;;;26.10;14.43;;;-3.40;99.90;;;;;;5134921;27;20446;-71
2021/01/16 04:28:46;;;;;;;23.60;15.10;;;-3.40;99.90;;;;;;5135142;27;20500;-71
2021/01/16 04:31:12;;;;;;;26.17;14.20;;;-3.40;99.90;;;;;;5135060;27;20466;-72
2021/01/16 04:33:39;;;;;;;31.10;15.90;;;-3.30;99.90;;;;;;5134889;27;20453;-72
2021/01/16 04:36:06;;;;;;;26.07;14.90;;;-3.30;99.90;;;;;;5134860;27;20474;-72
2021/01/16 04:38:33;;;;;;;31.37;14.70;;;-3.40;99.90;;;;;;5134754;27;20483;-72
2021/01/16 04:41:01;;;;;;;29.27;15.80;;;-3.30;99.90;;;;;;5134104;27;21169;-72
2021/01/16 04:43:28;;;;;;;28.03;15.13;;;-3.30;99.90;;;;;;5134903;27;20443;-71
2021/01/16 04:46:05;;;;;;;26.80;13.73;;;-3.40;99.90;;;;;;5134857;27;20438;-71
2021/01/16 04:48:33;;;;;;;30.03;14.73;;;-3.40;99.90;;;;;;5134690;27;20427;-72
2021/01/16 04:51:01;;;;;;;28.93;15.13;;;-3.50;99.90;;;;;;5134122;27;20427;-72
2021/01/16 04:53:36;;;;;;;22.30;13.20;;;-3.50;99.90;;;;;;5134666;27;20440;-72
2021/01/16 04:56:04;;;;;;;22.43;14.40;;;-3.50;99.90;;;;;;5134421;27;20454;-71
2021/01/16 04:58:34;;;;;;;23.83;13.80;;;-3.40;99.90;;;;;;5134646;27;20416;-71
2021/01/16 05:01:04;;;;;;;24.97;14.37;;;-3.40;99.90;;;;;;5134212;27;20419;-71
2021/01/16 05:03:36;;;;;;;26.97;13.97;;;-3.30;99.90;;;;;;5134546;27;20448;-72
2021/01/16 05:06:06;;;;;;;35.87;15.37;;;-3.30;99.90;;;;;;5133994;27;20434;-73
2021/01/16 05:08:33;;;;;;;27.43;15.97;;;-3.30;99.90;;;;;;5134497;27;20468;-72
2021/01/16 05:11:05;;;;;;;30.23;15.57;;;-3.30;99.90;;;;;;5133995;27;20420;-72
2021/01/16 05:13:42;;;;;;;27.23;14.10;;;-3.40;99.90;;;;;;5134338;27;20492;-72
2021/01/16 05:16:12;;;;;;;30.50;15.70;;;-3.40;99.90;;;;;;5134260;27;20463;-72
2021/01/16 05:18:42;;;;;;;26.37;14.37;;;-3.40;99.90;;;;;;5134319;27;20423;-72
2021/01/16 05:21:09;;;;;;;24.17;14.10;;;-3.40;99.90;;;;;;5133992;27;20427;-72
2021/01/16 05:23:42;;;;;;;29.20;16.10;;;-3.50;99.90;;;;;;5134325;27;20970;-71
2021/01/16 05:26:09;;;;;;;27.00;15.17;;;-3.60;99.90;;;;;;5134180;27;20423;-72
2021/01/16 05:28:38;;;;;;;29.30;16.27;;;-3.60;99.90;;;;;;5134212;27;20419;-72
2021/01/16 05:31:07;;;;;;;27.27;14.90;;;-3.60;99.90;;;;;;5143092;27;20851;-72
2021/01/16 05:33:35;;;;;;;33.80;16.60;;;-3.60;99.90;;;;;;5143430;27;20484;-71
2021/01/16 05:36:04;;;;;;;26.97;15.80;;;-3.60;99.90;;;;;;5144151;27;20467;-73
2021/01/16 05:38:35;;;;;;;34.60;17.17;;;-3.70;99.90;;;;;;5142755;27;20423;-73
2021/01/16 05:41:04;;;;;;;27.47;17.73;;;-3.50;99.90;;;;;;5144942;27;20479;-73
2021/01/16 05:43:33;;;;;;;36.60;20.40;;;-3.50;99.90;;;;;;5154620;27;20499;-73
2021/01/16 05:46:03;;;;;;;33.00;19.13;;;-3.50;99.90;;;;;;5154926;27;20431;-72
2021/01/16 05:48:31;;;;;;;36.60;18.10;;;-3.60;99.90;;;;;;5147296;27;20439;-73
2021/01/16 05:50:59;;;;;;;33.50;16.83;;;-3.60;99.90;;;;;;5133774;27;20426;-73
2021/01/16 05:53:26;;;;;;;29.37;15.57;;;-3.60;99.90;;;;;;5133819;27;20963;-72
2021/01/16 05:55:54;;;;;;;34.23;17.97;;;-3.60;99.90;;;;;;5133521;27;20519;-72
2021/01/16 05:58:22;;;;;;;32.93;18.53;;;-3.60;99.90;;;;;;5133875;27;20423;-73
2021/01/16 06:00:50;;;;;;;32.67;18.30;;;-3.60;99.90;;;;;;5133667;27;20941;-73
2021/01/16 06:03:20;;;;;;;25.97;16.33;;;-3.70;99.90;;;;;;5133628;27;20854;-73
2021/01/16 06:05:51;;;;;;;29.80;15.67;;;-3.60;99.90;;;;;;5133038;27;20450;-73
2021/01/16 06:08:19;;;;;;;30.90;16.67;;;-3.70;99.90;;;;;;5133558;27;20792;-73
2021/01/16 06:10:52;;;;;;;29.50;18.30;;;-3.70;99.90;;;;;;5133370;27;20419;-73
2021/01/16 06:13:21;;;;;;;27.40;17.80;;;-3.60;99.90;;;;;;5133346;27;20838;-72
2021/01/16 06:15:50;;;;;;;29.87;17.63;;;-3.70;99.90;;;;;;5133267;27;20463;-72
2021/01/16 06:18:27;;;;;;;32.90;18.87;;;-3.70;99.90;;;;;;5132204;27;20419;-72
2021/01/16 06:20:55;;;;;;;32.43;17.07;;;-3.70;99.90;;;;;;5132838;27;20450;-72
2021/01/16 06:23:23;;;;;;;32.50;19.13;;;-3.70;99.90;;;;;;5133008;27;20450;-72
2021/01/16 06:25:54;;;;;;;36.87;21.70;;;-3.70;99.90;;;;;;5133090;27;20419;-72
2021/01/16 06:28:24;;;;;;;32.37;18.57;;;-3.70;99.90;;;;;;5141813;27;20836;-72
2021/01/16 06:30:56;;;;;;;36.90;19.13;;;-3.80;99.90;;;;;;5146806;27;20927;-72
2021/01/16 06:33:25;;;;;;;25.93;15.13;;;-3.80;99.90;;;;;;5144922;27;20450;-72
2021/01/16 06:35:58;;;;;;;27.53;17.30;;;-3.80;99.90;;;;;;5140688;27;20462;-72
2021/01/16 06:38:30;;;;;;;33.50;18.63;;;-3.70;99.90;;;;;;5139325;27;20987;-72
2021/01/16 06:41:09;;;;;;;25.80;16.00;;;-3.80;99.90;;;;;;5140240;27;20425;-72
2021/01/16 06:43:40;;;;;;;27.37;15.50;;;-3.80;99.90;;;;;;5137288;27;21018;-72
2021/01/16 06:46:12;;;;;;;31.67;15.73;;;-3.90;99.90;;;;;;5140146;27;20423;-72
2021/01/16 06:48:41;;;;;;;32.80;19.93;;;-3.90;99.90;;;;;;5140153;27;20430;-72
2021/01/16 06:51:11;;;;;;;31.07;18.13;;;-3.90;99.90;;;;;;5137499;27;20993;-72
2021/01/16 06:53:38;;;;;;;30.60;15.67;;;-3.90;99.90;;;;;;5132217;27;20463;-72
2021/01/16 06:56:09;;;;;;;33.53;18.43;;;-3.80;99.90;;;;;;5132356;27;20515;-72
2021/01/16 06:58:41;;;;;;;33.97;18.70;;;-3.80;99.90;;;;;;5132447;27;20427;-72
2021/01/16 07:01:09;;;;;;;28.03;16.50;;;-3.80;99.90;;;;;;5132173;27;20426;-72
2021/01/16 07:03:43;;;;;;;30.17;17.37;;;-3.80;99.90;;;;;;5132339;27;20443;-71
2021/01/16 07:06:10;;;;;;;36.10;18.50;;;-3.80;99.90;;;;;;5142612;27;20426;-72
2021/01/16 07:08:41;;;;;;;35.83;17.90;;;-3.70;99.90;;;;;;5144424;27;20423;-72
2021/01/16 07:11:09;;;;;;;31.10;16.30;;;-3.70;99.90;;;;;;5144451;27;20428;-72
2021/01/16 07:13:41;;;;;;;25.27;14.60;;;-3.70;99.90;;;;;;5144828;27;20852;-72
2021/01/16 07:16:08;;;;;;;29.97;16.23;;;-3.70;99.90;;;;;;5148533;27;20488;-72
2021/01/16 07:18:36;;;;;;;29.97;17.50;;;-3.70;99.90;;;;;;5141546;27;20428;-72
2021/01/16 07:21:04;;;;;;;29.60;14.10;;;-3.60;99.90;;;;;;5140503;27;20431;-72
2021/01/16 07:23:34;;;;;;;30.97;15.30;;;-3.70;99.90;;;;;;5131246;27;20466;-72
2021/01/16 07:26:02;;;;;;;28.03;17.03;;;-3.80;99.90;;;;;;5131139;27;20424;-72
2021/01/16 07:28:29;;;;;;;31.20;17.37;;;-3.80;99.90;;;;;;5131961;27;20415;-71
2021/01/16 07:30:57;;;;;;;27.77;15.90;;;-3.80;99.90;;;;;;5141099;27;20418;-72
2021/01/16 07:33:28;;;;;;;39.83;18.57;;;-3.80;99.90;;;;;;5142184;27;20475;-71
2021/01/16 07:35:57;;;;;;;36.30;17.73;;;-3.80;99.90;;;;;;5143636;27;20466;-71
2021/01/16 07:38:28;;;;;;;28.93;15.73;;;-3.70;99.90;;;;;;5141257;27;20449;-71
2021/01/16 07:40:57;;;;;;;33.93;16.97;;;-3.60;99.90;;;;;;5130353;27;20419;-68
2021/01/16 07:43:50;;;;;;;35.67;18.43;;;-3.40;99.90;;;;;;5130185;28;20443;-68
2021/01/16 07:46:20;;;;;;;28.07;17.13;;;-3.30;99.90;;;;;;5117547;28;20444;-67
2021/01/16 07:48:50;;;;;;;28.03;16.70;;;-3.20;99.90;;;;;;5138856;27;20480;-68
2021/01/16 07:51:18;;;;;;;30.13;15.47;;;-3.10;99.90;;;;;;5142236;27;20927;-68
2021/01/16 07:53:46;;;;;;;29.50;15.17;;;-3.10;99.90;;;;;;5139573;27;20458;-67
2021/01/16 07:56:23;;;;;;;24.67;14.70;;;-3.00;99.90;;;;;;5139430;27;20473;-68
2021/01/16 07:59:19;;;;;;;23.63;14.07;;;-3.10;99.90;;;;;;5139514;27;20440;-68
2021/01/16 08:02:35;;;;;;;28.47;14.73;;;-3.00;99.90;;;;;;5141541;27;20414;-67
2021/01/16 08:05:20;;;;;;;22.67;13.47;;;-3.00;99.90;;;;;;5081115;27;20419;-68
2021/01/16 08:08:23;;;;;;;30.33;13.70;;;-3.10;99.90;;;;;;5141595;27;20999;-68
2021/01/16 08:10:54;;;;;;;25.63;15.30;;;-3.10;99.90;;;;;;5141574;27;20421;-69
2021/01/16 08:13:23;;;;;;;22.27;13.80;;;-3.10;99.90;;;;;;5144185;27;20434;-68
2021/01/16 08:15:51;;;;;;;29.27;13.67;;;-3.10;99.90;;;;;;5151898;27;20548;-68
2021/01/16 08:18:20;;;;;;;24.53;13.40;;;-3.20;99.90;;;;;;5132402;27;20430;-69
2021/01/16 08:20:49;;;;;;;31.80;15.23;;;-3.10;99.90;;;;;;5131167;28;20439;-68
2021/01/16 08:23:23;;;;;;;25.90;15.83;;;-3.10;99.90;;;;;;5131132;28;20939;-68
2021/01/16 08:25:51;;;;;;;25.20;12.60;;;-3.20;99.90;;;;;;5130710;27;20483;-68
2021/01/16 08:28:26;;;;;;;20.80;12.77;;;-3.20;99.90;;;;;;5131265;27;20430;-68
2021/01/16 08:30:53;;;;;;;25.33;14.63;;;-3.30;99.90;;;;;;5131103;27;20426;-68
2021/01/16 08:33:32;;;;;;;26.30;9.27;;;-3.40;99.90;;;;;;5131166;28;20975;-68
2021/01/16 08:36:16;;;;;;;30.00;15.20;;;-3.40;99.90;;;;;;5131220;27;20470;-68
2021/01/16 08:38:43;;;;;;;29.60;14.70;;;-3.40;99.90;;;;;;5131353;27;20934;-68
2021/01/16 08:41:11;;;;;;;28.10;14.20;;;-3.30;99.90;;;;;;5131192;27;20766;-68
2021/01/16 08:43:39;;;;;;;31.33;15.47;;;-3.40;99.90;;;;;;5134764;27;20447;-68
2021/01/16 08:46:07;;;;;;;33.93;17.13;;;-3.30;99.90;;;;;;5134756;27;20430;-68
2021/01/16 08:48:34;;;;;;;21.57;14.30;;;-3.20;99.90;;;;;;5134844;27;20428;-68
2021/01/16 08:51:01;;;;;;;33.73;17.13;;;-3.20;99.90;;;;;;5134681;27;20453;-68
2021/01/16 08:53:31;;;;;;;21.27;11.40;;;-3.20;99.90;;;;;;5134613;27;20516;-68
2021/01/16 08:56:19;;;;;;;33.13;15.83;;;-3.20;99.90;;;;;;5134388;27;20462;-68
2021/01/16 08:58:49;;;;;;;28.90;14.07;;;-3.20;99.90;;;;;;5134463;27;20431;-68
2021/01/16 09:01:15;;;;;;;33.07;15.73;;;-3.10;99.90;;;;;;5134382;27;20450;-68
2021/01/16 09:03:42;;;;;;;27.90;15.37;;;-3.10;99.90;;;;;;5134494;27;20447;-68
2021/01/16 09:06:09;;;;;;;35.80;16.10;;;-3.10;99.90;;;;;;5134589;27;20431;-68
2021/01/16 09:08:35;;;;;;;29.00;16.37;;;-3.00;99.90;;;;;;5134372;27;20760;-67
2021/01/16 09:11:12;;;;;;;31.93;15.23;;;-3.10;99.90;;;;;;5143511;27;20427;-66
2021/01/16 09:13:42;;;;;;;41.40;14.20;;;-3.00;99.90;;;;;;5137091;27;20443;-67
2021/01/16 09:16:29;;;;;;;34.57;15.23;;;-3.00;99.90;;;;;;5139466;27;20846;-68
2021/01/16 09:18:56;;;;;;;35.63;16.30;;;-3.00;99.90;;;;;;5141696;27;20426;-67
2021/01/16 09:21:24;;;;;;;34.10;15.17;;;-3.00;99.90;;;;;;5143249;27;20416;-67
2021/01/16 09:23:52;;;;;;;34.50;16.00;;;-2.90;99.90;;;;;;5142383;27;21036;-67
2021/01/16 09:26:20;;;;;;;34.80;16.50;;;-2.90;99.90;;;;;;5143448;27;20439;-67
2021/01/16 09:28:50;;;;;;;35.50;16.70;;;-2.80;99.90;;;;;;5144145;27;20434;-67
2021/01/16 09:31:28;;;;;;;24.50;15.83;;;-2.50;99.90;;;;;;5142354;27;20447;-68
2021/01/16 09:33:57;;;;;;;26.13;12.40;;;-2.40;99.90;;;;;;5141842;27;20839;-69
2021/01/16 09:36:52;;;;;;;27.73;14.87;;;-2.40;99.90;;;;;;5142751;27;20826;-68
2021/01/16 09:39:21;;;;;;;24.83;12.47;;;-2.50;99.90;;;;;;5138193;27;20459;-69
2021/01/16 09:41:50;;;;;;;32.20;15.70;;;-2.90;99.90;;;;;;5140611;27;20771;-68
2021/01/16 09:44:51;;;;;;;31.13;14.93;;;-3.00;99.90;;;;;;5142219;27;20451;-69
2021/01/16 09:47:46;;;;;;;28.13;14.80;;;-2.90;99.90;;;;;;5142366;27;21202;-68
2021/01/16 09:50:17;;;;;;;21.30;11.23;;;-2.80;99.90;;;;;;5143952;27;20477;-68
2021/01/16 09:52:49;;;;;;;23.17;10.37;;;-2.80;99.90;;;;;;5142611;27;20441;-69
2021/01/16 09:55:26;;;;;;;19.50;10.60;;;-3.00;99.90;;;;;;5141700;27;20455;-68
2021/01/16 09:57:53;;;;;;;26.73;14.40;;;-3.30;99.90;;;;;;5141780;27;20423;-69
2021/01/16 10:00:29;;;;;;;26.40;12.70;;;-3.30;99.90;;;;;;5142687;27;20447;-69
2021/01/16 10:03:09;;;;;;;30.00;14.63;;;-3.30;99.90;;;;;;5142598;27;20848;-69
2021/01/16 10:05:38;;;;;;;22.93;13.27;;;-3.20;99.90;;;;;;5144499;27;20475;-68
2021/01/16 10:08:06;;;;;;;25.70;12.73;;;-3.00;99.90;;;;;;5149011;27;20419;-69
2021/01/16 10:10:43;;;;;;;26.00;13.93;;;-2.90;99.90;;;;;;5139113;27;20788;-69
2021/01/16 10:13:11;;;;;;;27.00;11.93;;;-2.90;99.90;;;;;;5141136;27;20446;-69
2021/01/16 10:15:51;;;;;;;31.70;11.80;;;-3.00;99.90;;;;;;5142316;27;20466;-68
2021/01/16 10:18:19;;;;;;;22.97;13.17;;;-2.80;99.90;;;;;;5143370;27;20836;-69
2021/01/16 10:21:03;;;;;;;25.93;12.50;;;-2.70;99.90;;;;;;5124452;27;20446;-68
2021/01/16 10:23:32;;;;;;;28.63;13.73;;;-2.70;99.90;;;;;;5143339;27;20471;-68
2021/01/16 10:26:05;;;;;;;26.37;12.97;;;-2.60;99.90;;;;;;5141656;27;20448;-69
2021/01/16 10:28:34;;;;;;;24.27;11.27;;;-2.40;99.90;;;;;;5129666;27;20419;-69
2021/01/16 10:31:03;;;;;;;21.70;10.73;;;-2.30;99.90;;;;;;5129798;27;20412;-69
2021/01/16 10:33:37;;;;;;;21.40;12.30;;;-2.70;99.90;;;;;;5131495;27;20757;-69
2021/01/16 10:36:06;;;;;;;36.73;17.37;;;-2.60;99.90;;;;;;5131709;27;20865;-69
2021/01/16 10:38:50;;;;;;;25.23;12.73;;;-2.40;99.90;;;;;;5131258;27;20431;-69
2021/01/16 10:41:19;;;;;;;35.43;19.83;;;-2.40;99.90;;;;;;5141117;27;20427;-69
2021/01/16 10:43:47;;;;;;;35.90;16.90;;;-2.50;99.90;;;;;;5140570;27;20438;-70
2021/01/16 10:46:29;;;;;;;36.27;16.47;;;-2.50;99.90;;;;;;5140195;27;20433;-69
2021/01/16 10:49:11;;;;;;;28.70;15.37;;;-2.50;99.90;;;;;;5141407;27;20492;-70
2021/01/16 10:51:40;;;;;;;23.00;12.90;;;-2.50;99.90;;;;;;5131212;27;20842;-69
2021/01/16 10:54:08;;;;;;;29.50;14.50;;;-2.50;99.90;;;;;;5131147;27;20499;-70
2021/01/16 10:56:35;;;;;;;25.43;12.63;;;-2.50;99.90;;;;;;5130922;27;20474;-70
2021/01/16 10:59:09;;;;;;;30.00;16.43;;;-2.40;99.90;;;;;;5131000;27;20431;-70
2021/01/16 11:01:48;;;;;;;25.50;13.23;;;-2.30;99.90;;;;;;5131556;27;20411;-69
2021/01/16 11:04:19;;;;;;;23.17;13.93;;;-2.50;99.90;;;;;;5131898;27;20443;-72
2021/01/16 11:06:58;;;;;;;27.40;15.10;;;-2.40;99.90;;;;;;5132235;27;20480;-70
2021/01/16 11:09:45;;;;;;;24.27;13.27;;;-2.40;99.90;;;;;;5145426;27;20446;-71
2021/01/16 11:12:12;;;;;;;21.87;13.13;;;-2.30;99.90;;;;;;5145358;27;20424;-70
2021/01/16 11:14:41;;;;;;;32.40;14.90;;;-2.40;99.90;;;;;;5142036;27;20515;-69
2021/01/16 11:17:12;;;;;;;24.03;13.47;;;-2.40;99.90;;;;;;5132674;27;20427;-70
2021/01/16 11:19:40;;;;;;;28.03;14.90;;;-2.50;99.90;;;;;;5135333;27;20427;-70
2021/01/16 11:22:09;;;;;;;32.60;15.50;;;-2.50;99.90;;;;;;5133575;27;20427;-69
2021/01/16 11:25:14;;;;;;;32.20;16.87;;;-2.60;99.90;;;;;;5151061;27;20442;-68
2021/01/16 11:28:06;;;;;;;27.00;15.83;;;-2.30;99.90;;;;;;5152733;27;20918;-67
2021/01/16 11:30:39;;;;;;;26.07;14.97;;;-2.30;99.90;;;;;;5140549;27;20476;-67
2021/01/16 11:33:14;;;;;;;26.83;15.70;;;-2.40;99.90;;;;;;5138053;27;20825;-68
2021/01/16 11:35:42;;;;;;;31.30;15.87;;;-2.70;99.90;;;;;;5143624;27;20985;-68
2021/01/16 11:38:38;;;;;;;35.27;16.53;;;-2.80;99.90;;;;;;5140029;27;20419;-67
2021/01/16 11:41:05;;;;;;;26.53;13.90;;;-2.70;99.90;;;;;;5142135;27;20419;-67
2021/01/16 11:43:31;;;;;;;23.23;13.20;;;-2.60;99.90;;;;;;5140954;27;20457;-67
2021/01/16 11:46:02;;;;;;;27.23;13.30;;;-2.50;99.90;;;;;;5141689;27;20430;-67
2021/01/16 11:48:32;;;;;;;28.43;14.10;;;-2.40;99.90;;;;;;5142471;27;20491;-68
2021/01/16 11:51:06;;;;;;;39.53;15.73;;;-2.40;99.90;;;;;;5141588;27;20415;-69
2021/01/16 11:53:33;;;;;;;30.97;14.20;;;-2.40;99.90;;;;;;5140700;27;20442;-68
2021/01/16 11:56:02;;;;;;;30.80;14.60;;;-2.70;99.90;;;;;;5141033;27;20497;-68
2021/01/16 11:58:41;;;;;;;26.27;15.43;;;-2.90;99.90;;;;;;5142686;27;20415;-67
2021/01/16 12:01:08;;;;;;;34.37;18.27;;;-2.90;99.90;;;;;;5140091;27;20503;-67
2021/01/16 12:03:37;;;;;;;32.80;16.17;;;-2.90;99.90;;;;;;5141929;27;20434;-67
2021/01/16 12:06:13;;;;;;;33.40;16.20;;;-2.80;99.90;;;;;;5142080;27;20427;-67
2021/01/16 12:08:43;;;;;;;27.97;15.70;;;-2.60;99.90;;;;;;5140424;27;20423;-66
2021/01/16 12:11:10;;;;;;;30.60;15.97;;;-2.60;99.90;;;;;;5140625;27;20432;-66
2021/01/16 12:13:37;;;;;;;28.00;12.10;;;-2.70;99.90;;;;;;5140762;27;20439;-67
2021/01/16 12:16:04;;;;;;;26.50;14.50;;;-2.90;99.90;;;;;;5142510;27;21056;-69
2021/01/16 12:18:37;;;;;;;28.73;16.13;;;-2.90;99.90;;;;;;5145548;27;20475;-69
2021/01/16 12:21:07;;;;;;;35.53;18.43;;;-2.80;99.90;;;;;;5144529;27;20454;-69
2021/01/16 12:23:40;;;;;;;34.50;18.93;;;-2.60;99.90;;;;;;5145211;27;20525;-69
2021/01/16 12:26:10;;;;;;;31.67;17.40;;;-2.70;99.90;;;;;;5144284;27;20434;-71
2021/01/16 12:28:40;;;;;;;25.93;14.73;;;-2.50;99.90;;;;;;5144546;27;20787;-68
2021/01/16 12:31:07;;;;;;;31.67;18.53;;;-2.40;99.90;;;;;;5134679;27;20830;-66
2021/01/16 12:33:34;;;;;;;35.63;16.10;;;-2.50;99.90;;;;;;5134640;27;20816;-70
2021/01/16 12:36:09;;;;;;;26.93;16.93;;;-2.40;99.90;;;;;;5134503;27;20509;-67
2021/01/16 12:38:36;;;;;;;30.50;18.00;;;-2.50;99.90;;;;;;5134965;27;20797;-69
2021/01/16 12:41:02;;;;;;;28.03;15.80;;;-2.50;99.90;;;;;;5134570;27;20426;-69
2021/01/16 12:43:29;;;;;;;25.60;15.27;;;-2.50;99.90;;;;;;5134837;27;20443;-68
2021/01/16 12:45:56;;;;;;;27.10;15.93;;;-2.40;99.90;;;;;;5135053;27;20430;-70